createdAt,value
2018-03-03T00:00:59.574Z,54.00
2018-03-03T00:01:59.566Z,52.87
2018-03-03T00:03:54.066Z,52.68
2018-03-03T00:04:53.881Z,53.06
2018-03-03T00:06:48.239Z,52.21
2018-03-03T00:07:48.223Z,52.49
2018-03-03T00:09:42.670Z,52.49
2018-03-03T00:10:42.647Z,52.40
2018-03-03T00:12:36.999Z,53.25
2018-03-03T00:13:36.909Z,52.68
2018-03-03T00:15:31.336Z,52.68
2018-03-03T00:16:31.347Z,52.96
2018-03-03T00:18:26.630Z,53.15
2018-03-03T00:21:26.451Z,53.25
2018-03-03T00:22:25.479Z,52.87
2018-03-03T00:24:21.845Z,53.15
2018-03-03T00:25:19.349Z,52.68
2018-03-03T00:27:13.228Z,52.96
2018-03-03T00:30:08.397Z,52.78
2018-03-03T00:31:08.413Z,52.68
2018-03-03T00:33:01.759Z,52.78
2018-03-03T00:34:02.762Z,53.15
2018-03-03T00:35:57.578Z,52.96
2018-03-03T00:36:57.093Z,52.87
2018-03-03T00:38:51.445Z,52.87
2018-03-03T00:39:51.946Z,52.68
2018-03-03T00:41:45.461Z,52.68
2018-03-03T00:42:46.266Z,52.96
2018-03-03T00:44:41.623Z,52.96
2018-03-03T00:45:40.116Z,52.40
2018-03-03T00:47:33.507Z,52.49
2018-03-03T00:48:33.484Z,52.40
2018-03-03T00:50:28.022Z,52.30
2018-03-03T00:51:28.044Z,51.92
2018-03-03T00:53:22.361Z,51.54
2018-03-03T00:54:22.301Z,51.45
2018-03-03T00:56:16.672Z,51.73
2018-03-03T00:57:16.689Z,51.73
2018-03-03T00:59:11.266Z,51.36
2018-03-03T01:00:10.998Z,51.36
2018-03-03T01:02:05.368Z,51.20
2018-03-03T01:03:05.332Z,51.29
2018-03-03T01:04:59.827Z,51.57
2018-03-03T01:05:59.669Z,51.57
2018-03-03T01:07:54.038Z,50.82
2018-03-03T01:08:54.084Z,50.91
2018-03-03T01:10:48.427Z,50.91
2018-03-03T01:11:48.371Z,51.01
2018-03-03T01:13:42.844Z,51.10
2018-03-03T01:14:42.716Z,50.91
2018-03-03T01:16:37.063Z,51.01
2018-03-03T01:17:37.051Z,50.53
2018-03-03T01:19:31.764Z,49.87
2018-03-03T01:20:31.387Z,50.06
2018-03-03T01:22:26.290Z,50.72
2018-03-03T01:23:26.263Z,50.82
2018-03-03T01:25:20.675Z,50.53
2018-03-03T01:26:20.575Z,50.53
2018-03-03T01:28:16.516Z,50.82
2018-03-03T01:29:14.943Z,50.72
2018-03-03T01:31:09.262Z,50.72
2018-03-03T01:32:09.247Z,50.44
2018-03-03T01:34:03.643Z,50.72
2018-03-03T01:35:03.612Z,50.44
2018-03-03T01:36:57.940Z,50.44
2018-03-03T01:37:57.931Z,51.10
2018-03-03T01:39:52.330Z,51.01
2018-03-03T01:40:52.264Z,50.91
2018-03-03T01:42:46.617Z,51.20
2018-03-03T01:43:46.603Z,51.67
2018-03-03T01:45:41.102Z,51.57
2018-03-03T01:46:40.951Z,51.76
2018-03-03T01:48:35.317Z,51.57
2018-03-03T01:49:35.283Z,51.86
2018-03-03T01:51:29.841Z,52.30
2018-03-03T01:52:29.649Z,52.40
2018-03-03T01:54:23.993Z,52.59
2018-03-03T01:55:23.995Z,53.06
2018-03-03T01:57:18.561Z,53.25
2018-03-03T01:58:18.341Z,52.96
2018-03-03T02:00:16.767Z,53.37
2018-03-03T02:01:16.752Z,52.99
2018-03-03T02:03:11.213Z,53.37
2018-03-03T02:04:11.105Z,52.61
2018-03-03T02:06:06.033Z,52.70
2018-03-03T02:07:05.431Z,52.70
2018-03-03T02:09:00.026Z,52.51
2018-03-03T02:09:59.838Z,52.61
2018-03-03T02:11:54.168Z,52.42
2018-03-03T02:12:54.177Z,52.51
2018-03-03T02:14:48.504Z,52.42
2018-03-03T02:15:48.444Z,52.42
2018-03-03T02:17:42.816Z,52.51
2018-03-03T02:18:42.786Z,52.42
2018-03-03T02:20:37.342Z,52.99
2018-03-03T02:21:37.157Z,52.99
2018-03-03T02:23:31.526Z,52.89
2018-03-03T02:24:31.492Z,52.80
2018-03-03T02:26:25.883Z,52.61
2018-03-03T02:27:25.834Z,53.27
2018-03-03T02:29:20.451Z,53.46
2018-03-03T02:30:20.193Z,53.37
2018-03-03T02:32:14.515Z,52.87
2018-03-03T02:33:14.498Z,53.81
2018-03-03T02:35:08.894Z,54.10
2018-03-03T02:36:08.842Z,54.28
2018-03-03T02:38:03.775Z,54.57
2018-03-03T02:39:03.180Z,54.57
2018-03-03T02:40:57.856Z,54.28
2018-03-03T02:41:57.534Z,54.57
2018-03-03T02:43:51.883Z,54.47
2018-03-03T02:44:51.862Z,54.38
2018-03-03T02:46:46.269Z,54.47
2018-03-03T02:47:46.225Z,54.19
2018-03-03T02:49:40.570Z,54.85
2018-03-03T02:50:40.553Z,54.38
2018-03-03T02:52:34.958Z,54.66
2018-03-03T02:53:34.900Z,54.57
2018-03-03T02:55:29.259Z,54.47
2018-03-03T02:56:29.236Z,54.75
2018-03-03T02:58:23.871Z,55.04
2018-03-03T02:59:23.577Z,55.32
2018-03-03T03:01:17.923Z,55.70
2018-03-03T03:02:17.906Z,55.61
2018-03-03T03:04:12.307Z,54.94
2018-03-03T03:05:12.248Z,54.94
2018-03-03T03:07:06.663Z,54.75
2018-03-03T03:08:06.593Z,54.10
2018-03-03T03:10:00.962Z,54.38
2018-03-03T03:11:00.939Z,54.47
2018-03-03T03:12:55.346Z,54.66
2018-03-03T03:13:55.273Z,54.00
2018-03-03T03:15:49.646Z,53.91
2018-03-03T03:16:49.605Z,54.19
2018-03-03T03:18:44.488Z,54.28
2018-03-03T03:19:43.954Z,54.38
2018-03-03T03:20:43.925Z,54.66
2018-03-03T03:21:43.932Z,54.47
2018-03-03T03:22:43.903Z,54.28
2018-03-03T03:23:43.890Z,54.47
2018-03-03T03:24:43.873Z,53.84
2018-03-03T03:25:43.907Z,53.65
2018-03-03T03:26:43.849Z,53.75
2018-03-03T03:27:43.857Z,54.13
2018-03-03T03:28:43.864Z,53.84
2018-03-03T03:29:43.834Z,52.99
2018-03-03T03:30:43.814Z,53.27
2018-03-03T03:31:43.794Z,52.96
2018-03-03T03:32:43.778Z,53.25
2018-03-03T03:33:43.806Z,53.15
2018-03-03T03:34:43.782Z,53.34
2018-03-03T03:35:43.738Z,54.10
2018-03-03T03:36:43.798Z,53.81
2018-03-03T03:37:43.725Z,54.10
2018-03-03T03:38:43.751Z,54.57
2018-03-03T03:39:43.732Z,54.19
2018-03-03T03:40:43.743Z,53.81
2018-03-03T03:41:43.773Z,54.28
2018-03-03T03:42:43.643Z,54.10
2018-03-03T03:43:43.709Z,54.00
2018-03-03T03:44:43.644Z,54.00
2018-03-03T03:45:43.612Z,53.91
2018-03-03T03:46:43.605Z,54.19
2018-03-03T03:47:43.577Z,53.81
2018-03-03T03:48:43.568Z,53.91
2018-03-03T03:49:43.562Z,54.00
2018-03-03T03:50:43.546Z,54.10
2018-03-03T03:51:43.527Z,54.28
2018-03-03T03:52:43.515Z,54.38
2018-03-03T03:53:43.512Z,54.10
2018-03-03T03:54:43.500Z,54.00
2018-03-03T03:55:43.480Z,54.19
2018-03-03T03:56:43.463Z,54.47
2018-03-03T03:57:43.474Z,54.47
2018-03-03T03:58:43.442Z,54.19
2018-03-03T03:59:43.452Z,54.19
2018-03-03T04:00:43.423Z,54.10
2018-03-03T04:01:43.401Z,54.57
2018-03-03T04:02:43.446Z,54.47
2018-03-03T04:03:43.368Z,54.57
2018-03-03T04:04:43.385Z,54.66
2018-03-03T04:05:43.374Z,54.57
2018-03-03T04:06:43.345Z,54.19
2018-03-03T04:07:43.333Z,54.47
2018-03-03T04:08:43.389Z,54.66
2018-03-03T04:09:43.345Z,54.28
2018-03-03T04:10:43.277Z,54.57
2018-03-03T04:11:43.263Z,54.66
2018-03-03T04:12:43.252Z,55.51
2018-03-03T04:13:43.238Z,55.23
2018-03-03T04:14:43.225Z,55.61
2018-03-03T04:15:43.211Z,55.80
2018-03-03T04:16:43.197Z,55.04
2018-03-03T04:17:43.183Z,54.85
2018-03-03T04:18:43.219Z,54.94
2018-03-03T04:19:43.156Z,54.94
2018-03-03T04:20:43.144Z,54.85
2018-03-03T04:21:43.132Z,55.61
2018-03-03T04:22:43.116Z,55.23
2018-03-03T04:23:43.106Z,56.05
2018-03-03T04:24:43.090Z,55.96
2018-03-03T04:25:43.077Z,55.96
2018-03-03T04:26:43.076Z,55.86
2018-03-03T04:27:43.053Z,56.36
2018-03-03T04:28:43.035Z,55.89
2018-03-03T04:29:43.068Z,55.51
2018-03-03T04:30:43.006Z,55.89
2018-03-03T04:31:42.996Z,55.01
2018-03-03T04:32:42.979Z,55.67
2018-03-03T04:33:42.966Z,55.23
2018-03-03T04:34:42.950Z,55.42
2018-03-03T04:35:42.938Z,55.61
2018-03-03T04:36:42.988Z,54.85
2018-03-03T04:37:42.922Z,55.04
2018-03-03T04:38:42.902Z,54.94
2018-03-03T04:39:42.914Z,55.42
2018-03-03T04:40:42.893Z,55.23
2018-03-03T04:41:42.855Z,55.13
2018-03-03T04:42:42.843Z,54.38
2018-03-03T04:43:42.830Z,54.75
2018-03-03T04:44:42.814Z,54.92
2018-03-03T04:45:43.478Z,54.82
2018-03-03T04:46:42.794Z,55.67
2018-03-03T04:47:42.788Z,55.67
2018-03-03T04:48:42.790Z,55.86
2018-03-03T04:49:42.760Z,55.49
2018-03-03T04:50:42.785Z,55.49
2018-03-03T04:51:42.726Z,55.86
2018-03-03T04:52:42.728Z,55.86
2018-03-03T04:53:42.694Z,56.15
2018-03-03T04:54:42.681Z,55.96
2018-03-03T04:55:42.671Z,55.67
2018-03-03T04:56:42.649Z,56.52
2018-03-03T04:57:42.637Z,56.90
2018-03-03T04:58:42.623Z,56.62
2018-03-03T04:59:42.607Z,55.86
2018-03-03T05:00:42.594Z,55.96
2018-03-03T05:01:42.578Z,56.15
2018-03-03T05:02:42.575Z,56.52
2018-03-03T05:03:42.549Z,56.43
2018-03-03T05:04:42.537Z,55.58
2018-03-03T05:05:42.522Z,55.67
2018-03-03T05:06:42.507Z,56.34
2018-03-03T05:07:42.495Z,56.34
2018-03-03T05:08:42.485Z,56.15
2018-03-03T05:09:42.467Z,56.15
2018-03-03T05:10:42.451Z,56.24
2018-03-03T05:11:42.440Z,56.34
2018-03-03T05:12:42.424Z,56.05
2018-03-03T05:13:42.415Z,56.24
2018-03-03T05:14:42.472Z,56.05
2018-03-03T05:15:42.381Z,56.34
2018-03-03T05:16:42.368Z,56.62
2018-03-03T05:17:42.353Z,56.62
2018-03-03T05:18:42.338Z,56.81
2018-03-03T05:19:42.324Z,56.05
2018-03-03T05:20:42.311Z,56.24
2018-03-03T05:21:42.298Z,55.96
2018-03-03T05:22:42.369Z,55.96
2018-03-03T05:23:42.269Z,56.15
2018-03-03T05:24:42.254Z,55.96
2018-03-03T05:25:42.243Z,56.34
2018-03-03T05:26:42.228Z,55.96
2018-03-03T05:27:42.218Z,55.58
2018-03-03T05:28:42.200Z,55.58
2018-03-03T05:29:42.187Z,55.86
2018-03-03T05:30:42.172Z,55.39
2018-03-03T05:31:42.158Z,55.67
2018-03-03T05:32:42.182Z,55.49
2018-03-03T05:33:42.169Z,54.82
2018-03-03T05:34:42.130Z,55.20
2018-03-03T05:35:42.106Z,55.20
2018-03-03T05:36:42.132Z,55.11
2018-03-03T05:37:42.081Z,55.77
2018-03-03T05:38:42.077Z,55.20
2018-03-03T05:39:42.055Z,55.86
2018-03-03T05:40:42.088Z,56.24
2018-03-03T05:41:42.053Z,56.34
2018-03-03T05:42:42.050Z,55.96
2018-03-03T05:43:41.992Z,56.15
2018-03-03T05:44:41.980Z,55.96
2018-03-03T05:45:41.965Z,56.05
2018-03-03T05:46:42.230Z,55.96
2018-03-03T05:47:41.937Z,55.96
2018-03-03T05:48:41.930Z,56.62
2018-03-03T05:49:41.911Z,56.81
2018-03-03T05:50:41.924Z,56.62
2018-03-03T05:51:41.883Z,56.71
2018-03-03T05:52:41.866Z,56.71
2018-03-03T05:53:41.852Z,57.37
2018-03-03T05:54:41.838Z,57.46
2018-03-03T05:55:41.823Z,57.37
2018-03-03T05:56:41.819Z,57.56
2018-03-03T05:57:41.799Z,57.09
2018-03-03T05:58:41.782Z,57.46
2018-03-03T05:59:41.766Z,57.37
2018-03-03T06:00:41.752Z,57.46
2018-03-03T06:01:41.736Z,57.37
2018-03-03T06:02:41.725Z,57.37
2018-03-03T06:03:41.713Z,57.46
2018-03-03T06:04:41.713Z,57.46
2018-03-03T06:05:41.681Z,57.75
2018-03-03T06:06:41.726Z,57.65
2018-03-03T06:07:41.652Z,57.94
2018-03-03T06:08:41.643Z,58.03
2018-03-03T06:09:41.629Z,57.75
2018-03-03T06:10:41.610Z,57.75
2018-03-03T06:11:41.626Z,57.84
2018-03-03T06:12:41.583Z,58.03
2018-03-03T06:13:41.574Z,57.84
2018-03-03T06:14:41.549Z,57.81
2018-03-03T06:15:41.534Z,57.56
2018-03-03T06:16:41.533Z,57.65
2018-03-03T06:17:41.521Z,57.65
2018-03-03T06:18:41.510Z,57.75
2018-03-03T06:19:41.523Z,57.65
2018-03-03T06:20:41.516Z,57.84
2018-03-03T06:21:41.501Z,57.75
2018-03-03T06:22:41.497Z,57.94
2018-03-03T06:23:41.425Z,57.37
2018-03-03T06:24:41.477Z,57.09
2018-03-03T06:25:41.395Z,57.46
2018-03-03T06:26:41.387Z,57.75
2018-03-03T06:27:41.361Z,57.84
2018-03-03T06:28:41.347Z,58.12
2018-03-03T06:29:41.332Z,57.75
2018-03-03T06:30:41.317Z,57.94
2018-03-03T06:31:41.302Z,57.72
2018-03-03T06:32:41.289Z,57.53
2018-03-03T06:33:41.275Z,58.10
2018-03-03T06:34:41.260Z,58.29
2018-03-03T06:35:41.245Z,58.57
2018-03-03T06:36:41.231Z,58.19
2018-03-03T06:37:41.215Z,58.88
2018-03-03T06:38:41.207Z,58.19
2018-03-03T06:39:41.194Z,58.88
2018-03-03T06:40:41.172Z,57.94
2018-03-03T06:41:41.158Z,57.65
2018-03-03T06:42:41.146Z,58.29
2018-03-03T06:43:41.130Z,58.19
2018-03-03T06:44:41.114Z,58.47
2018-03-03T06:45:41.098Z,58.66
2018-03-03T06:46:41.086Z,58.66
2018-03-03T06:47:41.072Z,58.66
2018-03-03T06:48:41.056Z,59.04
2018-03-03T06:49:41.041Z,58.76
2018-03-03T06:50:41.029Z,58.76
2018-03-03T06:51:41.014Z,58.50
2018-03-03T06:52:41.009Z,58.79
2018-03-03T06:53:40.981Z,58.22
2018-03-03T06:54:40.967Z,57.84
2018-03-03T06:55:40.952Z,57.94
2018-03-03T06:56:40.939Z,57.65
2018-03-03T06:57:40.923Z,57.94
2018-03-03T06:58:40.910Z,57.46
2018-03-03T06:59:40.898Z,57.94
2018-03-03T07:00:40.920Z,58.12
2018-03-03T07:01:40.866Z,57.65
2018-03-03T07:02:40.854Z,57.65
2018-03-03T07:03:40.839Z,58.03
2018-03-03T07:04:40.830Z,58.12
2018-03-03T07:05:40.808Z,57.84
2018-03-03T07:06:40.798Z,57.84
2018-03-03T07:07:40.796Z,57.94
2018-03-03T07:08:40.767Z,57.84
2018-03-03T07:09:40.753Z,58.60
2018-03-03T07:10:40.737Z,58.60
2018-03-03T07:11:40.723Z,59.14
2018-03-03T07:12:40.710Z,58.76
2018-03-03T07:13:40.693Z,58.98
2018-03-03T07:14:40.678Z,58.79
2018-03-03T07:15:40.664Z,58.79
2018-03-03T07:16:40.652Z,58.79
2018-03-03T07:17:40.639Z,58.88
2018-03-03T07:18:41.387Z,58.60
2018-03-03T07:19:40.607Z,58.31
2018-03-03T07:20:40.595Z,58.41
2018-03-03T07:21:40.702Z,58.41
2018-03-03T07:22:40.572Z,58.60
2018-03-03T07:23:40.550Z,58.41
2018-03-03T07:24:40.535Z,58.79
2018-03-03T07:25:40.542Z,58.22
2018-03-03T07:26:40.505Z,57.94
2018-03-03T07:27:40.492Z,57.94
2018-03-03T07:28:40.484Z,57.94
2018-03-03T07:29:40.463Z,57.75
2018-03-03T07:30:40.449Z,57.56
2018-03-03T07:31:40.434Z,57.75
2018-03-03T07:32:40.422Z,57.84
2018-03-03T07:33:40.407Z,57.65
2018-03-03T07:34:40.394Z,57.28
2018-03-03T07:35:40.379Z,56.71
2018-03-03T07:36:40.366Z,56.71
2018-03-03T07:37:40.353Z,56.90
2018-03-03T07:38:40.338Z,56.43
2018-03-03T07:39:40.322Z,56.34
2018-03-03T07:40:40.311Z,56.81
2018-03-03T07:41:40.296Z,56.81
2018-03-03T07:42:40.297Z,57.18
2018-03-03T07:43:40.309Z,56.71
2018-03-03T07:44:40.310Z,56.99
2018-03-03T07:45:40.281Z,57.46
2018-03-03T07:46:40.287Z,57.37
2018-03-03T07:47:40.228Z,57.37
2018-03-03T07:48:40.202Z,57.37
2018-03-03T07:49:40.229Z,57.46
2018-03-03T07:50:40.172Z,57.56
2018-03-03T07:51:40.158Z,57.37
2018-03-03T07:52:40.145Z,57.75
2018-03-03T07:53:40.130Z,57.94
2018-03-03T07:54:40.116Z,58.12
2018-03-03T07:55:40.104Z,58.79
2018-03-03T07:56:40.091Z,58.60
2018-03-03T07:57:40.075Z,58.79
2018-03-03T07:58:40.064Z,58.88
2018-03-03T07:59:40.049Z,58.79
2018-03-03T08:00:40.033Z,59.07
2018-03-03T08:01:40.018Z,58.60
2018-03-03T08:02:40.045Z,58.79
2018-03-03T08:03:39.991Z,58.50
2018-03-03T08:04:39.981Z,58.88
2018-03-03T08:05:39.963Z,58.69
2018-03-03T08:06:39.971Z,58.60
2018-03-03T08:07:39.940Z,59.26
2018-03-03T08:08:39.945Z,58.79
2018-03-03T08:09:39.908Z,59.17
2018-03-03T08:10:39.902Z,58.69
2018-03-03T08:11:39.879Z,59.26
2018-03-03T08:12:39.887Z,58.69
2018-03-03T08:13:39.866Z,59.07
2018-03-03T08:14:39.897Z,58.60
2018-03-03T08:15:39.830Z,58.63
2018-03-03T08:16:39.846Z,57.68
2018-03-03T08:17:39.876Z,57.78
2018-03-03T08:18:39.860Z,57.87
2018-03-03T08:19:40.169Z,57.87
2018-03-03T08:20:39.760Z,58.06
2018-03-03T08:21:39.742Z,57.50
2018-03-03T08:22:39.730Z,57.12
2018-03-03T08:23:39.717Z,57.03
2018-03-03T08:24:39.700Z,56.84
2018-03-03T08:25:39.687Z,56.84
2018-03-03T08:26:39.673Z,56.74
2018-03-03T08:27:39.670Z,56.65
2018-03-03T08:28:39.652Z,56.55
2018-03-03T08:29:39.634Z,56.36
2018-03-03T08:30:39.624Z,56.84
2018-03-03T08:31:39.650Z,56.65
2018-03-03T08:32:39.598Z,57.40
2018-03-03T08:33:39.585Z,57.21
2018-03-03T08:34:39.566Z,57.97
2018-03-03T08:35:39.558Z,57.87
2018-03-03T08:36:39.541Z,58.44
2018-03-03T08:37:39.531Z,58.79
2018-03-03T08:38:39.513Z,59.17
2018-03-03T08:39:39.499Z,58.69
2018-03-03T08:40:39.488Z,58.79
2018-03-03T08:41:39.473Z,59.19
2018-03-03T08:42:39.462Z,58.79
2018-03-03T08:43:39.454Z,58.69
2018-03-03T08:44:39.432Z,58.72
2018-03-03T08:45:39.420Z,58.91
2018-03-03T08:46:39.411Z,58.82
2018-03-03T08:47:39.391Z,58.91
2018-03-03T08:48:39.383Z,58.34
2018-03-03T08:49:39.363Z,58.91
2018-03-03T08:50:39.350Z,58.60
2018-03-03T08:51:39.336Z,58.79
2018-03-03T08:52:39.324Z,58.88
2018-03-03T08:53:39.308Z,58.60
2018-03-03T08:54:39.297Z,59.64
2018-03-03T08:55:39.282Z,59.45
2018-03-03T08:56:39.267Z,58.82
2018-03-03T08:57:39.256Z,58.91
2018-03-03T08:58:39.243Z,59.19
2018-03-03T08:59:39.230Z,58.91
2018-03-03T09:00:39.218Z,58.03
2018-03-03T09:01:39.209Z,58.79
2018-03-03T09:02:39.196Z,58.72
2018-03-03T09:03:39.171Z,58.98
2018-03-03T09:04:39.158Z,58.88
2018-03-03T09:05:39.144Z,59.29
2018-03-03T09:06:39.131Z,58.79
2018-03-03T09:07:39.118Z,58.98
2018-03-03T09:08:39.117Z,58.41
2018-03-03T09:09:39.090Z,58.98
2018-03-03T09:10:39.076Z,59.38
2018-03-03T09:11:39.061Z,58.82
2018-03-03T09:12:39.051Z,59.19
2018-03-03T09:13:39.034Z,59.10
2018-03-03T09:14:39.021Z,59.10
2018-03-03T09:15:39.012Z,58.91
2018-03-03T09:16:38.993Z,58.88
2018-03-03T09:17:38.981Z,58.98
2018-03-03T09:18:38.969Z,59.00
2018-03-03T09:19:38.954Z,58.82
2018-03-03T09:20:38.950Z,58.72
2018-03-03T09:21:38.924Z,58.91
2018-03-03T09:22:38.913Z,58.72
2018-03-03T09:23:38.901Z,58.63
2018-03-03T09:24:38.884Z,57.68
2018-03-03T09:25:38.872Z,58.06
2018-03-03T09:26:38.858Z,57.50
2018-03-03T09:27:38.844Z,57.31
2018-03-03T09:28:38.833Z,57.40
2018-03-03T09:29:38.839Z,57.31
2018-03-03T09:30:38.804Z,56.84
2018-03-03T09:31:38.793Z,57.50
2018-03-03T09:32:38.776Z,57.40
2018-03-03T09:33:38.764Z,57.59
2018-03-03T09:34:38.749Z,57.78
2018-03-03T09:35:38.738Z,57.87
2018-03-03T09:36:38.728Z,57.87
2018-03-03T09:37:38.943Z,58.06
2018-03-03T09:38:38.727Z,57.87
2018-03-03T09:39:38.684Z,57.59
2018-03-03T09:40:38.670Z,58.15
2018-03-03T09:41:38.659Z,57.21
2018-03-03T09:42:38.642Z,56.74
2018-03-03T09:43:38.630Z,56.74
2018-03-03T09:44:38.616Z,56.27
2018-03-03T09:45:38.603Z,56.65
2018-03-03T09:46:38.590Z,56.65
2018-03-03T09:47:38.577Z,56.27
2018-03-03T09:48:38.564Z,56.08
2018-03-03T09:49:38.550Z,57.12
2018-03-03T09:50:38.543Z,56.93
2018-03-03T09:51:39.328Z,57.31
2018-03-03T09:52:38.514Z,57.03
2018-03-03T09:53:38.499Z,57.59
2018-03-03T09:54:38.484Z,57.50
2018-03-03T09:55:38.484Z,57.68
2018-03-03T09:56:38.461Z,57.87
2018-03-03T09:57:38.446Z,57.59
2018-03-03T09:58:38.447Z,57.59
2018-03-03T09:59:38.419Z,57.40
2018-03-03T10:00:38.406Z,58.06
2018-03-03T10:01:43.359Z,58.44
2018-03-03T10:02:38.378Z,58.82
2018-03-03T10:03:38.366Z,58.91
2018-03-03T10:04:38.351Z,58.82
2018-03-03T10:05:38.337Z,58.53
2018-03-03T10:06:38.327Z,58.72
2018-03-03T10:07:38.315Z,59.19
2018-03-03T10:08:38.298Z,59.19
2018-03-03T10:09:38.291Z,59.29
2018-03-03T10:10:38.271Z,58.72
2018-03-03T10:11:38.263Z,58.72
2018-03-03T10:12:38.243Z,57.68
2018-03-03T10:13:38.230Z,57.97
2018-03-03T10:14:38.224Z,57.21
2018-03-03T10:15:38.209Z,56.74
2018-03-03T10:16:38.192Z,56.93
2018-03-03T10:17:38.186Z,57.31
2018-03-03T10:18:38.165Z,56.96
2018-03-03T10:19:38.547Z,56.84
2018-03-03T10:20:38.139Z,56.39
2018-03-03T10:21:38.126Z,56.39
2018-03-03T10:22:38.114Z,55.89
2018-03-03T10:23:38.102Z,57.12
2018-03-03T10:24:38.093Z,57.59
2018-03-03T10:25:38.075Z,57.78
2018-03-03T10:26:38.060Z,57.78
2018-03-03T10:27:38.048Z,57.68
2018-03-03T10:28:38.035Z,57.71
2018-03-03T10:29:38.027Z,57.90
2018-03-03T10:30:38.017Z,58.18
2018-03-03T10:31:38.011Z,57.15
2018-03-03T10:32:38.003Z,56.96
2018-03-03T10:33:37.971Z,56.86
2018-03-03T10:34:37.959Z,57.34
2018-03-03T10:35:37.946Z,56.86
2018-03-03T10:36:37.946Z,56.96
2018-03-03T10:37:37.920Z,57.59
2018-03-03T10:38:37.913Z,57.31
2018-03-03T10:39:37.896Z,57.68
2018-03-03T10:40:37.900Z,57.97
2018-03-03T10:41:37.872Z,57.97
2018-03-03T10:42:37.860Z,57.68
2018-03-03T10:43:37.850Z,58.15
2018-03-03T10:44:37.834Z,58.63
2018-03-03T10:45:37.827Z,58.63
2018-03-03T10:46:37.806Z,58.63
2018-03-03T10:47:37.794Z,58.91
2018-03-03T10:48:37.836Z,59.57
2018-03-03T10:49:37.778Z,59.10
2018-03-03T10:50:37.763Z,59.60
2018-03-03T10:51:37.743Z,59.51
2018-03-03T10:52:38.088Z,59.51
2018-03-03T10:53:37.718Z,59.98
2018-03-03T10:54:37.716Z,60.74
2018-03-03T10:55:37.692Z,60.83
2018-03-03T10:56:37.685Z,60.36
2018-03-03T10:57:37.671Z,60.55
2018-03-03T10:58:37.654Z,60.36
2018-03-03T10:59:37.645Z,60.55
2018-03-03T11:00:37.634Z,60.64
2018-03-03T11:01:37.617Z,60.74
2018-03-03T11:02:37.610Z,60.46
2018-03-03T11:03:37.593Z,60.46
2018-03-03T11:04:37.581Z,60.74
2018-03-03T11:05:37.575Z,60.83
2018-03-03T11:06:37.557Z,60.27
2018-03-03T11:07:37.547Z,60.17
2018-03-03T11:08:37.533Z,60.74
2018-03-03T11:09:37.521Z,60.27
2018-03-03T11:10:37.510Z,61.02
2018-03-03T11:11:37.496Z,61.58
2018-03-03T11:12:37.482Z,61.77
2018-03-03T11:13:37.470Z,61.96
2018-03-03T11:14:37.457Z,61.80
2018-03-03T11:15:37.446Z,61.90
2018-03-03T11:16:37.442Z,61.33
2018-03-03T11:17:37.421Z,61.71
2018-03-03T11:18:37.413Z,60.77
2018-03-03T11:19:37.400Z,60.20
2018-03-03T11:20:37.386Z,59.35
2018-03-03T11:21:37.373Z,59.92
2018-03-03T11:22:37.361Z,59.73
2018-03-03T11:23:37.352Z,59.73
2018-03-03T11:24:37.346Z,59.92
2018-03-03T11:25:37.345Z,60.49
2018-03-03T11:26:37.322Z,60.58
2018-03-03T11:27:37.312Z,60.67
2018-03-03T11:28:37.295Z,60.61
2018-03-03T11:29:37.289Z,60.39
2018-03-03T11:30:37.273Z,60.33
2018-03-03T11:31:37.263Z,60.61
2018-03-03T11:32:37.260Z,60.80
2018-03-03T11:33:37.247Z,60.58
2018-03-03T11:34:37.227Z,60.58
2018-03-03T11:35:37.220Z,60.96
2018-03-03T11:36:37.421Z,60.99
2018-03-03T11:37:37.197Z,61.36
2018-03-03T11:38:37.185Z,61.08
2018-03-03T11:39:37.176Z,61.83
2018-03-03T11:40:37.182Z,62.02
2018-03-03T11:41:37.148Z,62.78
2018-03-03T11:42:37.145Z,63.26
2018-03-03T11:43:37.128Z,63.26
2018-03-03T11:44:37.119Z,63.70
2018-03-03T11:45:37.105Z,64.01
2018-03-03T11:46:37.098Z,63.51
2018-03-03T11:47:37.085Z,64.26
2018-03-03T11:48:37.073Z,64.58
2018-03-03T11:49:37.154Z,65.40
2018-03-03T11:50:37.061Z,65.21
2018-03-03T11:51:37.041Z,66.16
2018-03-03T11:52:37.027Z,66.06
2018-03-03T11:53:37.015Z,67.10
2018-03-03T11:54:37.008Z,66.44
2018-03-03T11:55:36.998Z,66.72
2018-03-03T11:56:36.982Z,67.00
2018-03-03T11:57:37.020Z,67.19
2018-03-03T11:58:36.966Z,67.95
2018-03-03T11:59:37.011Z,67.95
2018-03-03T12:00:37.033Z,67.57
2018-03-03T12:01:37.954Z,67.76
2018-03-03T12:02:36.916Z,68.04
2018-03-03T12:03:37.023Z,67.57
2018-03-03T12:04:37.163Z,66.91
2018-03-03T12:05:36.885Z,66.91
2018-03-03T12:06:37.046Z,67.00
2018-03-03T12:07:36.858Z,66.91
2018-03-03T12:08:36.848Z,67.95
2018-03-03T12:09:36.856Z,67.76
2018-03-03T12:10:36.827Z,67.85
2018-03-03T12:11:36.844Z,67.85
2018-03-03T12:12:36.814Z,67.19
2018-03-03T12:13:36.790Z,67.10
2018-03-03T12:14:36.781Z,67.29
2018-03-03T12:15:36.770Z,67.19
2018-03-03T12:16:36.758Z,67.29
2018-03-03T12:17:36.746Z,67.10
2018-03-03T12:18:36.770Z,67.19
2018-03-03T12:19:36.724Z,66.82
2018-03-03T12:20:36.713Z,66.82
2018-03-03T12:21:36.714Z,67.10
2018-03-03T12:22:36.692Z,66.63
2018-03-03T12:23:36.681Z,66.72
2018-03-03T12:24:37.281Z,66.63
2018-03-03T12:25:36.744Z,66.82
2018-03-03T12:26:36.645Z,66.53
2018-03-03T12:27:36.639Z,66.63
2018-03-03T12:28:36.623Z,66.72
2018-03-03T12:29:36.610Z,66.56
2018-03-03T12:30:36.599Z,66.38
2018-03-03T12:31:36.587Z,66.85
2018-03-03T12:32:36.583Z,66.00
2018-03-03T12:33:36.569Z,66.19
2018-03-03T12:34:36.605Z,65.91
2018-03-03T12:35:36.545Z,65.91
2018-03-03T12:36:36.533Z,66.19
2018-03-03T12:37:36.540Z,66.72
2018-03-03T12:38:36.510Z,66.56
2018-03-03T12:39:36.498Z,66.28
2018-03-03T12:40:37.427Z,65.81
2018-03-03T12:41:36.501Z,66.00
2018-03-03T12:42:36.527Z,65.62
2018-03-03T12:43:36.456Z,65.34
2018-03-03T12:44:36.446Z,65.72
2018-03-03T12:45:36.448Z,66.28
2018-03-03T12:46:36.420Z,66.47
2018-03-03T12:47:36.426Z,66.28
2018-03-03T12:48:36.432Z,66.28
2018-03-03T12:49:36.387Z,66.28
2018-03-03T12:50:36.381Z,65.72
2018-03-03T12:51:36.366Z,65.91
2018-03-03T12:52:36.397Z,65.72
2018-03-03T12:53:36.341Z,65.24
2018-03-03T12:54:36.331Z,65.34
2018-03-03T12:55:36.349Z,65.15
2018-03-03T12:56:36.308Z,65.34
2018-03-03T12:57:36.310Z,65.24
2018-03-03T12:58:36.321Z,65.43
2018-03-03T12:59:36.281Z,65.53
2018-03-03T13:00:36.320Z,65.43
2018-03-03T13:01:36.251Z,64.67
2018-03-03T13:02:36.244Z,64.29
2018-03-03T13:03:36.252Z,64.58
2018-03-03T13:04:36.225Z,64.20
2018-03-03T13:05:36.208Z,63.82
2018-03-03T13:06:36.195Z,63.73
2018-03-03T13:07:36.192Z,63.54
2018-03-03T13:08:36.189Z,63.73
2018-03-03T13:09:36.170Z,63.48
2018-03-03T13:10:36.207Z,63.10
2018-03-03T13:11:36.905Z,62.72
2018-03-03T13:12:36.138Z,62.82
2018-03-03T13:13:36.126Z,62.25
2018-03-03T13:14:36.113Z,63.10
2018-03-03T13:15:36.103Z,62.82
2018-03-03T13:16:36.093Z,62.82
2018-03-03T13:17:36.082Z,62.63
2018-03-03T13:18:36.093Z,62.91
2018-03-03T13:19:36.084Z,62.63
2018-03-03T13:20:36.060Z,62.91
2018-03-03T13:21:36.035Z,62.72
2018-03-03T13:22:36.063Z,63.29
2018-03-03T13:23:36.021Z,63.48
2018-03-03T13:24:36.006Z,63.76
2018-03-03T13:25:36.097Z,63.85
2018-03-03T13:26:35.986Z,64.04
2018-03-03T13:27:35.985Z,63.76
2018-03-03T13:28:36.013Z,64.42
2018-03-03T13:29:35.956Z,64.58
2018-03-03T13:30:35.941Z,64.39
2018-03-03T13:31:35.932Z,64.61
2018-03-03T13:32:35.920Z,64.52
2018-03-03T13:33:35.977Z,64.52
2018-03-03T13:34:35.899Z,64.14
2018-03-03T13:35:35.892Z,63.85
2018-03-03T13:36:35.884Z,64.42
2018-03-03T13:37:35.867Z,64.33
2018-03-03T13:38:35.858Z,64.04
2018-03-03T13:39:35.846Z,64.61
2018-03-03T13:40:35.839Z,64.33
2018-03-03T13:41:35.827Z,63.76
2018-03-03T13:42:35.818Z,63.29
2018-03-03T13:43:35.807Z,63.20
2018-03-03T13:44:35.796Z,63.48
2018-03-03T13:45:35.785Z,63.10
2018-03-03T13:46:35.772Z,63.29
2018-03-03T13:47:35.764Z,63.20
2018-03-03T13:48:35.796Z,62.53
2018-03-03T13:49:35.746Z,62.63
2018-03-03T13:50:35.734Z,62.25
2018-03-03T13:51:35.721Z,62.25
2018-03-03T13:52:35.712Z,62.44
2018-03-03T13:53:35.704Z,62.34
2018-03-03T13:54:35.689Z,62.15
2018-03-03T13:55:35.680Z,61.58
2018-03-03T13:56:36.514Z,61.21